sensor_id;sensor_type;location;lat;lon;timestamp;P1;durP1;ratioP1;P2;durP2;ratioP2
16119;SDS011;12670;53.502;10.252;2022-08-19T00:01:19;12.93;;;7.57;;
16119;SDS011;12670;53.502;10.252;2022-08-19T00:04:32;13.77;;;7.50;;
16119;SDS011;12670;53.502;10.252;2022-08-19T00:07:37;13.87;;;8.43;;
16119;SDS011;12670;53.502;10.252;2022-08-19T00:10:40;21.30;;;10.27;;
16119;SDS011;12670;53.502;10.252;2022-08-19T00:13:43;17.10;;;10.00;;
16119;SDS011;12670;53.502;10.252;2022-08-19T00:16:47;18.97;;;10.40;;
16119;SDS011;12670;53.502;10.252;2022-08-19T00:19:51;17.30;;;10.40;;
16119;SDS011;12670;53.502;10.252;2022-08-19T00:22:54;26.58;;;10.70;;
16119;SDS011;12670;53.502;10.252;2022-08-19T00:25:56;24.00;;;10.60;;
16119;SDS011;12670;53.502;10.252;2022-08-19T00:28:59;23.27;;;9.93;;
16119;SDS011;12670;53.502;10.252;2022-08-19T00:32:02;14.57;;;9.63;;
16119;SDS011;12670;53.502;10.252;2022-08-19T00:35:12;21.20;;;10.50;;
16119;SDS011;12670;53.502;10.252;2022-08-19T00:38:14;17.47;;;10.47;;
16119;SDS011;12670;53.502;10.252;2022-08-19T00:41:35;18.77;;;11.20;;
16119;SDS011;12670;53.502;10.252;2022-08-19T00:44:38;17.00;;;10.60;;
16119;SDS011;12670;53.502;10.252;2022-08-19T00:47:40;19.47;;;12.20;;
16119;SDS011;12670;53.502;10.252;2022-08-19T00:50:45;20.03;;;11.77;;
16119;SDS011;12670;53.502;10.252;2022-08-19T00:53:52;17.33;;;11.90;;
16119;SDS011;12670;53.502;10.252;2022-08-19T00:56:56;22.47;;;12.20;;
16119;SDS011;12670;53.502;10.252;2022-08-19T00:59:58;23.47;;;13.50;;
16119;SDS011;12670;53.502;10.252;2022-08-19T01:03:04;20.30;;;13.27;;
16119;SDS011;12670;53.502;10.252;2022-08-19T01:06:09;20.45;;;13.68;;
16119;SDS011;12670;53.502;10.252;2022-08-19T01:09:12;23.63;;;13.27;;
16119;SDS011;12670;53.502;10.252;2022-08-19T01:12:15;26.27;;;14.50;;
16119;SDS011;12670;53.502;10.252;2022-08-19T01:15:19;26.23;;;14.93;;
16119;SDS011;12670;53.502;10.252;2022-08-19T01:18:27;22.37;;;14.20;;
16119;SDS011;12670;53.502;10.252;2022-08-19T01:21:33;24.60;;;14.63;;
16119;SDS011;12670;53.502;10.252;2022-08-19T01:24:41;22.63;;;14.93;;
16119;SDS011;12670;53.502;10.252;2022-08-19T01:27:50;25.50;;;14.77;;
16119;SDS011;12670;53.502;10.252;2022-08-19T01:30:54;27.90;;;17.07;;
16119;SDS011;12670;53.502;10.252;2022-08-19T01:33:57;32.53;;;20.07;;
16119;SDS011;12670;53.502;10.252;2022-08-19T01:36:59;28.27;;;17.70;;
16119;SDS011;12670;53.502;10.252;2022-08-19T01:40:10;36.20;;;20.70;;
16119;SDS011;12670;53.502;10.252;2022-08-19T01:43:13;34.40;;;20.50;;
16119;SDS011;12670;53.502;10.252;2022-08-19T01:46:16;40.50;;;20.77;;
16119;SDS011;12670;53.502;10.252;2022-08-19T01:49:25;35.07;;;21.50;;
16119;SDS011;12670;53.502;10.252;2022-08-19T01:52:28;38.97;;;21.80;;
16119;SDS011;12670;53.502;10.252;2022-08-19T01:55:33;37.80;;;22.33;;
16119;SDS011;12670;53.502;10.252;2022-08-19T01:58:43;37.80;;;22.23;;
16119;SDS011;12670;53.502;10.252;2022-08-19T02:01:49;37.77;;;22.13;;
16119;SDS011;12670;53.502;10.252;2022-08-19T02:04:52;35.90;;;20.97;;
16119;SDS011;12670;53.502;10.252;2022-08-19T02:07:54;35.33;;;19.80;;
16119;SDS011;12670;53.502;10.252;2022-08-19T02:10:58;30.97;;;18.83;;
16119;SDS011;12670;53.502;10.252;2022-08-19T02:14:02;29.97;;;17.97;;
16119;SDS011;12670;53.502;10.252;2022-08-19T02:17:06;32.53;;;18.03;;
16119;SDS011;12670;53.502;10.252;2022-08-19T02:20:10;32.07;;;18.57;;
16119;SDS011;12670;53.502;10.252;2022-08-19T02:23:14;30.33;;;17.80;;
16119;SDS011;12670;53.502;10.252;2022-08-19T02:26:19;27.67;;;16.80;;
16119;SDS011;12670;53.502;10.252;2022-08-19T02:29:22;29.53;;;17.07;;
16119;SDS011;12670;53.502;10.252;2022-08-19T02:32:25;30.53;;;17.23;;
16119;SDS011;12670;53.502;10.252;2022-08-19T02:35:28;30.60;;;17.57;;
16119;SDS011;12670;53.502;10.252;2022-08-19T02:38:31;28.93;;;17.23;;
16119;SDS011;12670;53.502;10.252;2022-08-19T02:41:35;31.53;;;16.50;;
16119;SDS011;12670;53.502;10.252;2022-08-19T02:44:37;29.17;;;17.63;;
16119;SDS011;12670;53.502;10.252;2022-08-19T02:47:40;31.42;;;17.27;;
16119;SDS011;12670;53.502;10.252;2022-08-19T02:50:43;27.10;;;16.17;;
16119;SDS011;12670;53.502;10.252;2022-08-19T02:53:53;25.23;;;15.00;;
16119;SDS011;12670;53.502;10.252;2022-08-19T02:56:58;28.57;;;15.80;;
16119;SDS011;12670;53.502;10.252;2022-08-19T03:00:03;22.83;;;15.00;;
16119;SDS011;12670;53.502;10.252;2022-08-19T03:03:07;28.00;;;16.17;;
16119;SDS011;12670;53.502;10.252;2022-08-19T03:06:11;34.13;;;16.97;;
16119;SDS011;12670;53.502;10.252;2022-08-19T03:09:15;29.40;;;16.93;;
16119;SDS011;12670;53.502;10.252;2022-08-19T03:12:21;26.40;;;16.30;;
16119;SDS011;12670;53.502;10.252;2022-08-19T03:15:23;26.27;;;16.17;;
16119;SDS011;12670;53.502;10.252;2022-08-19T03:18:27;25.10;;;15.13;;
16119;SDS011;12670;53.502;10.252;2022-08-19T03:21:31;30.80;;;16.83;;
16119;SDS011;12670;53.502;10.252;2022-08-19T03:24:35;24.60;;;15.10;;
16119;SDS011;12670;53.502;10.252;2022-08-19T03:27:39;24.73;;;14.13;;
16119;SDS011;12670;53.502;10.252;2022-08-19T03:30:42;28.23;;;15.60;;
16119;SDS011;12670;53.502;10.252;2022-08-19T03:33:57;23.63;;;14.27;;
16119;SDS011;12670;53.502;10.252;2022-08-19T03:37:02;21.93;;;14.30;;
16119;SDS011;12670;53.502;10.252;2022-08-19T03:40:07;25.03;;;14.77;;
16119;SDS011;12670;53.502;10.252;2022-08-19T03:43:17;26.23;;;14.47;;
16119;SDS011;12670;53.502;10.252;2022-08-19T03:46:23;26.27;;;14.40;;
16119;SDS011;12670;53.502;10.252;2022-08-19T03:49:28;26.33;;;14.53;;
16119;SDS011;12670;53.502;10.252;2022-08-19T03:52:34;23.27;;;14.33;;
16119;SDS011;12670;53.502;10.252;2022-08-19T03:55:38;26.43;;;14.77;;
16119;SDS011;12670;53.502;10.252;2022-08-19T03:58:43;27.87;;;15.13;;
16119;SDS011;12670;53.502;10.252;2022-08-19T04:01:46;26.30;;;14.23;;
16119;SDS011;12670;53.502;10.252;2022-08-19T04:04:49;23.83;;;13.97;;
16119;SDS011;12670;53.502;10.252;2022-08-19T04:07:55;22.70;;;14.03;;
16119;SDS011;12670;53.502;10.252;2022-08-19T04:11:00;25.20;;;13.57;;
16119;SDS011;12670;53.502;10.252;2022-08-19T04:14:04;22.90;;;13.33;;
16119;SDS011;12670;53.502;10.252;2022-08-19T04:17:07;25.17;;;14.07;;
16119;SDS011;12670;53.502;10.252;2022-08-19T04:20:09;29.27;;;15.63;;
16119;SDS011;12670;53.502;10.252;2022-08-19T04:23:13;29.87;;;15.83;;
16119;SDS011;12670;53.502;10.252;2022-08-19T04:26:17;31.57;;;15.50;;
16119;SDS011;12670;53.502;10.252;2022-08-19T04:29:24;34.03;;;16.20;;
16119;SDS011;12670;53.502;10.252;2022-08-19T04:32:28;28.50;;;15.77;;
16119;SDS011;12670;53.502;10.252;2022-08-19T04:35:34;35.57;;;18.33;;
16119;SDS011;12670;53.502;10.252;2022-08-19T04:38:38;38.20;;;18.30;;
16119;SDS011;12670;53.502;10.252;2022-08-19T04:41:41;36.17;;;18.17;;
16119;SDS011;12670;53.502;10.252;2022-08-19T04:45:03;34.63;;;17.30;;
16119;SDS011;12670;53.502;10.252;2022-08-19T04:48:09;36.93;;;19.13;;
16119;SDS011;12670;53.502;10.252;2022-08-19T04:51:27;43.40;;;18.90;;
16119;SDS011;12670;53.502;10.252;2022-08-19T04:54:31;38.30;;;17.93;;
16119;SDS011;12670;53.502;10.252;2022-08-19T04:57:39;35.97;;;18.47;;
16119;SDS011;12670;53.502;10.252;2022-08-19T05:00:43;39.93;;;18.27;;
16119;SDS011;12670;53.502;10.252;2022-08-19T05:03:46;39.30;;;17.93;;
16119;SDS011;12670;53.502;10.252;2022-08-19T05:06:48;35.93;;;17.83;;
16119;SDS011;12670;53.502;10.252;2022-08-19T05:09:51;33.93;;;18.00;;
16119;SDS011;12670;53.502;10.252;2022-08-19T05:12:59;39.03;;;18.00;;
16119;SDS011;12670;53.502;10.252;2022-08-19T05:16:03;34.57;;;17.40;;
16119;SDS011;12670;53.502;10.252;2022-08-19T05:19:06;37.60;;;18.13;;
16119;SDS011;12670;53.502;10.252;2022-08-19T05:22:26;32.67;;;17.83;;
16119;SDS011;12670;53.502;10.252;2022-08-19T05:25:38;36.03;;;18.10;;
16119;SDS011;12670;53.502;10.252;2022-08-19T05:28:41;34.37;;;18.17;;
16119;SDS011;12670;53.502;10.252;2022-08-19T05:31:46;33.60;;;17.80;;
16119;SDS011;12670;53.502;10.252;2022-08-19T05:34:50;34.43;;;18.23;;
16119;SDS011;12670;53.502;10.252;2022-08-19T05:37:52;35.40;;;18.90;;
16119;SDS011;12670;53.502;10.252;2022-08-19T05:40:59;41.00;;;19.50;;
16119;SDS011;12670;53.502;10.252;2022-08-19T05:44:03;40.00;;;18.33;;
16119;SDS011;12670;53.502;10.252;2022-08-19T05:47:11;35.80;;;17.53;;
16119;SDS011;12670;53.502;10.252;2022-08-19T05:50:15;35.47;;;18.40;;
16119;SDS011;12670;53.502;10.252;2022-08-19T05:53:18;45.47;;;20.23;;
16119;SDS011;12670;53.502;10.252;2022-08-19T05:56:21;34.43;;;18.50;;
16119;SDS011;12670;53.502;10.252;2022-08-19T05:59:24;33.30;;;18.73;;
16119;SDS011;12670;53.502;10.252;2022-08-19T06:02:28;36.57;;;18.73;;
16119;SDS011;12670;53.502;10.252;2022-08-19T06:05:32;35.50;;;19.00;;
16119;SDS011;12670;53.502;10.252;2022-08-19T06:08:49;43.85;;;20.98;;
16119;SDS011;12670;53.502;10.252;2022-08-19T06:11:53;37.60;;;19.30;;
16119;SDS011;12670;53.502;10.252;2022-08-19T06:15:00;43.20;;;20.30;;
16119;SDS011;12670;53.502;10.252;2022-08-19T06:18:07;38.93;;;19.13;;
16119;SDS011;12670;53.502;10.252;2022-08-19T06:21:10;35.73;;;18.70;;
16119;SDS011;12670;53.502;10.252;2022-08-19T06:24:13;41.63;;;19.83;;
16119;SDS011;12670;53.502;10.252;2022-08-19T06:27:19;40.23;;;19.13;;
16119;SDS011;12670;53.502;10.252;2022-08-19T06:30:22;42.17;;;20.50;;
16119;SDS011;12670;53.502;10.252;2022-08-19T06:33:26;50.70;;;21.67;;
16119;SDS011;12670;53.502;10.252;2022-08-19T06:36:31;45.40;;;22.37;;
16119;SDS011;12670;53.502;10.252;2022-08-19T06:39:36;41.17;;;20.67;;
16119;SDS011;12670;53.502;10.252;2022-08-19T06:42:40;41.67;;;19.47;;
16119;SDS011;12670;53.502;10.252;2022-08-19T06:45:55;38.93;;;20.03;;
16119;SDS011;12670;53.502;10.252;2022-08-19T06:49:00;42.10;;;20.10;;
16119;SDS011;12670;53.502;10.252;2022-08-19T06:52:03;42.60;;;20.67;;
16119;SDS011;12670;53.502;10.252;2022-08-19T06:55:07;42.00;;;20.30;;
16119;SDS011;12670;53.502;10.252;2022-08-19T06:58:10;42.87;;;20.70;;
16119;SDS011;12670;53.502;10.252;2022-08-19T07:01:13;46.72;;;21.45;;
16119;SDS011;12670;53.502;10.252;2022-08-19T07:04:18;44.80;;;21.30;;
16119;SDS011;12670;53.502;10.252;2022-08-19T07:07:22;48.60;;;21.33;;
16119;SDS011;12670;53.502;10.252;2022-08-19T07:10:24;50.90;;;20.50;;
16119;SDS011;12670;53.502;10.252;2022-08-19T07:13:27;44.23;;;21.63;;
16119;SDS011;12670;53.502;10.252;2022-08-19T07:16:29;37.50;;;19.73;;
16119;SDS011;12670;53.502;10.252;2022-08-19T07:19:34;35.88;;;19.25;;
16119;SDS011;12670;53.502;10.252;2022-08-19T07:22:37;37.07;;;19.10;;
16119;SDS011;12670;53.502;10.252;2022-08-19T07:25:41;34.43;;;19.00;;
16119;SDS011;12670;53.502;10.252;2022-08-19T07:28:44;38.83;;;18.35;;
16119;SDS011;12670;53.502;10.252;2022-08-19T07:31:53;36.80;;;17.70;;
16119;SDS011;12670;53.502;10.252;2022-08-19T07:35:02;31.97;;;16.30;;
16119;SDS011;12670;53.502;10.252;2022-08-19T07:38:06;35.85;;;18.85;;
16119;SDS011;12670;53.502;10.252;2022-08-19T07:41:09;32.20;;;18.13;;
16119;SDS011;12670;53.502;10.252;2022-08-19T07:44:14;42.15;;;18.73;;
16119;SDS011;12670;53.502;10.252;2022-08-19T07:47:17;38.42;;;17.67;;
16119;SDS011;12670;53.502;10.252;2022-08-19T07:50:41;41.40;;;18.27;;
16119;SDS011;12670;53.502;10.252;2022-08-19T07:53:44;35.22;;;18.55;;
16119;SDS011;12670;53.502;10.252;2022-08-19T07:56:48;45.47;;;21.63;;
16119;SDS011;12670;53.502;10.252;2022-08-19T07:59:52;43.60;;;21.27;;
16119;SDS011;12670;53.502;10.252;2022-08-19T08:02:55;39.53;;;21.33;;
16119;SDS011;12670;53.502;10.252;2022-08-19T08:05:59;43.25;;;21.77;;
16119;SDS011;12670;53.502;10.252;2022-08-19T08:09:20;53.07;;;23.70;;
16119;SDS011;12670;53.502;10.252;2022-08-19T08:12:27;52.00;;;24.05;;
16119;SDS011;12670;53.502;10.252;2022-08-19T08:15:35;46.97;;;22.42;;
16119;SDS011;12670;53.502;10.252;2022-08-19T08:18:43;50.88;;;25.02;;
16119;SDS011;12670;53.502;10.252;2022-08-19T08:21:55;52.92;;;24.58;;
16119;SDS011;12670;53.502;10.252;2022-08-19T08:25:00;54.08;;;25.20;;
16119;SDS011;12670;53.502;10.252;2022-08-19T08:28:06;57.78;;;24.52;;
16119;SDS011;12670;53.502;10.252;2022-08-19T08:31:11;52.60;;;25.17;;
16119;SDS011;12670;53.502;10.252;2022-08-19T08:34:14;52.03;;;24.60;;
16119;SDS011;12670;53.502;10.252;2022-08-19T08:37:18;46.78;;;24.33;;
16119;SDS011;12670;53.502;10.252;2022-08-19T08:40:21;48.23;;;24.37;;
16119;SDS011;12670;53.502;10.252;2022-08-19T08:43:30;54.37;;;22.93;;
16119;SDS011;12670;53.502;10.252;2022-08-19T08:46:36;51.50;;;23.80;;
16119;SDS011;12670;53.502;10.252;2022-08-19T08:49:45;46.87;;;22.50;;
16119;SDS011;12670;53.502;10.252;2022-08-19T08:52:55;46.23;;;22.80;;
16119;SDS011;12670;53.502;10.252;2022-08-19T08:56:00;47.20;;;23.97;;
16119;SDS011;12670;53.502;10.252;2022-08-19T08:59:07;49.42;;;22.92;;
16119;SDS011;12670;53.502;10.252;2022-08-19T09:02:15;39.42;;;21.52;;
16119;SDS011;12670;53.502;10.252;2022-08-19T09:05:18;47.30;;;23.48;;
16119;SDS011;12670;53.502;10.252;2022-08-19T09:08:30;43.42;;;21.67;;
16119;SDS011;12670;53.502;10.252;2022-08-19T09:11:47;44.77;;;23.67;;
16119;SDS011;12670;53.502;10.252;2022-08-19T09:15:00;51.60;;;24.17;;
16119;SDS011;12670;53.502;10.252;2022-08-19T09:18:06;46.92;;;22.10;;
16119;SDS011;12670;53.502;10.252;2022-08-19T09:21:20;45.13;;;21.67;;
16119;SDS011;12670;53.502;10.252;2022-08-19T09:24:32;37.60;;;20.67;;
16119;SDS011;12670;53.502;10.252;2022-08-19T09:27:35;39.13;;;20.90;;
16119;SDS011;12670;53.502;10.252;2022-08-19T09:30:54;45.33;;;22.13;;
16119;SDS011;12670;53.502;10.252;2022-08-19T09:33:56;39.40;;;20.27;;
16119;SDS011;12670;53.502;10.252;2022-08-19T09:36:59;40.65;;;20.10;;
16119;SDS011;12670;53.502;10.252;2022-08-19T09:40:04;35.92;;;19.60;;
16119;SDS011;12670;53.502;10.252;2022-08-19T09:43:09;33.42;;;17.77;;
16119;SDS011;12670;53.502;10.252;2022-08-19T09:46:13;38.67;;;18.83;;
16119;SDS011;12670;53.502;10.252;2022-08-19T09:49:19;34.55;;;18.63;;
16119;SDS011;12670;53.502;10.252;2022-08-19T09:52:24;38.80;;;19.25;;
16119;SDS011;12670;53.502;10.252;2022-08-19T09:55:34;27.85;;;15.90;;
16119;SDS011;12670;53.502;10.252;2022-08-19T09:58:37;32.97;;;16.70;;
16119;SDS011;12670;53.502;10.252;2022-08-19T10:01:43;40.05;;;19.80;;
16119;SDS011;12670;53.502;10.252;2022-08-19T10:04:49;37.83;;;18.98;;
16119;SDS011;12670;53.502;10.252;2022-08-19T10:08:09;38.03;;;18.98;;
16119;SDS011;12670;53.502;10.252;2022-08-19T10:11:15;35.60;;;17.98;;
16119;SDS011;12670;53.502;10.252;2022-08-19T10:14:38;39.10;;;18.05;;
16119;SDS011;12670;53.502;10.252;2022-08-19T10:17:41;40.40;;;17.92;;
16119;SDS011;12670;53.502;10.252;2022-08-19T10:21:03;34.05;;;16.65;;
16119;SDS011;12670;53.502;10.252;2022-08-19T10:24:11;34.20;;;16.45;;
16119;SDS011;12670;53.502;10.252;2022-08-19T10:27:15;35.05;;;17.60;;
16119;SDS011;12670;53.502;10.252;2022-08-19T10:30:18;31.77;;;16.10;;
16119;SDS011;12670;53.502;10.252;2022-08-19T10:33:25;35.92;;;16.45;;
16119;SDS011;12670;53.502;10.252;2022-08-19T10:36:49;31.30;;;15.90;;
16119;SDS011;12670;53.502;10.252;2022-08-19T10:40:02;33.90;;;16.13;;
16119;SDS011;12670;53.502;10.252;2022-08-19T10:43:08;31.13;;;17.60;;
16119;SDS011;12670;53.502;10.252;2022-08-19T10:46:11;32.80;;;17.20;;
16119;SDS011;12670;53.502;10.252;2022-08-19T10:49:17;35.40;;;17.23;;
16119;SDS011;12670;53.502;10.252;2022-08-19T10:52:20;31.05;;;16.30;;
16119;SDS011;12670;53.502;10.252;2022-08-19T10:55:39;28.75;;;15.82;;
16119;SDS011;12670;53.502;10.252;2022-08-19T10:59:01;32.83;;;16.67;;
16119;SDS011;12670;53.502;10.252;2022-08-19T11:02:05;33.40;;;16.83;;
16119;SDS011;12670;53.502;10.252;2022-08-19T11:05:10;35.67;;;15.43;;
16119;SDS011;12670;53.502;10.252;2022-08-19T11:08:14;28.02;;;16.05;;
16119;SDS011;12670;53.502;10.252;2022-08-19T11:11:24;30.30;;;16.00;;
16119;SDS011;12670;53.502;10.252;2022-08-19T11:14:28;31.13;;;15.43;;
16119;SDS011;12670;53.502;10.252;2022-08-19T11:17:34;30.05;;;16.27;;
16119;SDS011;12670;53.502;10.252;2022-08-19T11:20:37;29.60;;;16.63;;
16119;SDS011;12670;53.502;10.252;2022-08-19T11:23:40;32.80;;;16.38;;
16119;SDS011;12670;53.502;10.252;2022-08-19T11:26:43;32.30;;;16.67;;
16119;SDS011;12670;53.502;10.252;2022-08-19T11:29:48;30.98;;;16.20;;
16119;SDS011;12670;53.502;10.252;2022-08-19T11:32:50;35.70;;;17.05;;
16119;SDS011;12670;53.502;10.252;2022-08-19T11:35:53;31.02;;;15.18;;
16119;SDS011;12670;53.502;10.252;2022-08-19T11:38:56;33.15;;;16.77;;
16119;SDS011;12670;53.502;10.252;2022-08-19T11:41:58;36.83;;;17.13;;
16119;SDS011;12670;53.502;10.252;2022-08-19T11:45:04;35.22;;;16.15;;
16119;SDS011;12670;53.502;10.252;2022-08-19T11:48:07;32.35;;;16.08;;
16119;SDS011;12670;53.502;10.252;2022-08-19T11:51:10;37.47;;;17.67;;
16119;SDS011;12670;53.502;10.252;2022-08-19T11:54:15;31.02;;;16.02;;
16119;SDS011;12670;53.502;10.252;2022-08-19T11:57:18;30.88;;;15.77;;
16119;SDS011;12670;53.502;10.252;2022-08-19T12:00:22;33.67;;;16.55;;
16119;SDS011;12670;53.502;10.252;2022-08-19T12:03:25;27.45;;;14.80;;
16119;SDS011;12670;53.502;10.252;2022-08-19T12:06:29;37.83;;;15.82;;
16119;SDS011;12670;53.502;10.252;2022-08-19T12:09:35;28.73;;;14.77;;
16119;SDS011;12670;53.502;10.252;2022-08-19T12:12:43;30.05;;;15.48;;
16119;SDS011;12670;53.502;10.252;2022-08-19T12:16:00;29.45;;;16.38;;
16119;SDS011;12670;53.502;10.252;2022-08-19T12:19:08;32.08;;;16.67;;
16119;SDS011;12670;53.502;10.252;2022-08-19T12:22:12;31.63;;;15.68;;
16119;SDS011;12670;53.502;10.252;2022-08-19T12:25:14;28.88;;;14.95;;
16119;SDS011;12670;53.502;10.252;2022-08-19T12:28:18;31.60;;;15.68;;
16119;SDS011;12670;53.502;10.252;2022-08-19T12:31:24;31.60;;;16.23;;
16119;SDS011;12670;53.502;10.252;2022-08-19T12:34:27;26.83;;;14.38;;
16119;SDS011;12670;53.502;10.252;2022-08-19T12:37:31;28.58;;;14.15;;
16119;SDS011;12670;53.502;10.252;2022-08-19T12:40:34;24.98;;;14.88;;
16119;SDS011;12670;53.502;10.252;2022-08-19T12:43:37;26.95;;;15.50;;
16119;SDS011;12670;53.502;10.252;2022-08-19T12:46:41;28.77;;;14.77;;
16119;SDS011;12670;53.502;10.252;2022-08-19T12:49:44;29.27;;;16.55;;
16119;SDS011;12670;53.502;10.252;2022-08-19T12:52:55;29.10;;;14.23;;
16119;SDS011;12670;53.502;10.252;2022-08-19T12:55:58;25.70;;;14.57;;
16119;SDS011;12670;53.502;10.252;2022-08-19T12:59:01;24.55;;;14.43;;
16119;SDS011;12670;53.502;10.252;2022-08-19T13:02:07;23.17;;;13.02;;
16119;SDS011;12670;53.502;10.252;2022-08-19T13:05:11;24.35;;;12.50;;
16119;SDS011;12670;53.502;10.252;2022-08-19T13:08:15;23.45;;;13.45;;
16119;SDS011;12670;53.502;10.252;2022-08-19T13:11:18;18.17;;;12.35;;
16119;SDS011;12670;53.502;10.252;2022-08-19T13:14:25;22.80;;;11.95;;
16119;SDS011;12670;53.502;10.252;2022-08-19T13:17:29;19.55;;;11.43;;
16119;SDS011;12670;53.502;10.252;2022-08-19T13:20:32;18.65;;;11.00;;
16119;SDS011;12670;53.502;10.252;2022-08-19T13:23:36;18.83;;;9.73;;
16119;SDS011;12670;53.502;10.252;2022-08-19T13:26:39;17.88;;;11.18;;
16119;SDS011;12670;53.502;10.252;2022-08-19T13:29:42;17.20;;;10.93;;
16119;SDS011;12670;53.502;10.252;2022-08-19T13:33:03;18.30;;;10.48;;
16119;SDS011;12670;53.502;10.252;2022-08-19T13:36:16;18.33;;;11.68;;
16119;SDS011;12670;53.502;10.252;2022-08-19T13:39:19;17.15;;;10.70;;
16119;SDS011;12670;53.502;10.252;2022-08-19T13:42:24;13.77;;;8.65;;
16119;SDS011;12670;53.502;10.252;2022-08-19T13:45:27;13.50;;;9.20;;
16119;SDS011;12670;53.502;10.252;2022-08-19T13:48:33;16.77;;;9.50;;
16119;SDS011;12670;53.502;10.252;2022-08-19T13:51:36;13.93;;;9.52;;
16119;SDS011;12670;53.502;10.252;2022-08-19T13:54:42;16.67;;;9.70;;
16119;SDS011;12670;53.502;10.252;2022-08-19T13:57:45;14.55;;;9.85;;
16119;SDS011;12670;53.502;10.252;2022-08-19T14:00:48;14.38;;;8.88;;
16119;SDS011;12670;53.502;10.252;2022-08-19T14:03:52;16.25;;;9.95;;
16119;SDS011;12670;53.502;10.252;2022-08-19T14:06:55;13.77;;;9.00;;
16119;SDS011;12670;53.502;10.252;2022-08-19T14:09:57;16.85;;;9.63;;
16119;SDS011;12670;53.502;10.252;2022-08-19T14:13:00;18.23;;;10.60;;
16119;SDS011;12670;53.502;10.252;2022-08-19T14:16:08;12.43;;;8.55;;
16119;SDS011;12670;53.502;10.252;2022-08-19T14:19:13;12.85;;;8.40;;
16119;SDS011;12670;53.502;10.252;2022-08-19T14:22:15;12.40;;;8.57;;
16119;SDS011;12670;53.502;10.252;2022-08-19T14:25:23;10.52;;;7.95;;
16119;SDS011;12670;53.502;10.252;2022-08-19T14:28:28;11.38;;;8.40;;
16119;SDS011;12670;53.502;10.252;2022-08-19T14:31:31;12.82;;;8.18;;
16119;SDS011;12670;53.502;10.252;2022-08-19T14:34:35;12.13;;;8.15;;
16119;SDS011;12670;53.502;10.252;2022-08-19T14:37:39;11.77;;;8.40;;
16119;SDS011;12670;53.502;10.252;2022-08-19T14:40:46;11.07;;;8.25;;
16119;SDS011;12670;53.502;10.252;2022-08-19T14:43:50;10.07;;;7.75;;
16119;SDS011;12670;53.502;10.252;2022-08-19T14:46:53;9.77;;;7.47;;
16119;SDS011;12670;53.502;10.252;2022-08-19T14:49:58;14.50;;;10.27;;
16119;SDS011;12670;53.502;10.252;2022-08-19T14:53:06;13.18;;;9.32;;
16119;SDS011;12670;53.502;10.252;2022-08-19T14:56:14;12.75;;;7.90;;
16119;SDS011;12670;53.502;10.252;2022-08-19T14:59:18;13.10;;;8.98;;
16119;SDS011;12670;53.502;10.252;2022-08-19T15:02:20;11.50;;;8.15;;
16119;SDS011;12670;53.502;10.252;2022-08-19T15:05:36;13.80;;;8.32;;
16119;SDS011;12670;53.502;10.252;2022-08-19T15:08:40;12.45;;;9.25;;
16119;SDS011;12670;53.502;10.252;2022-08-19T15:11:44;12.38;;;8.35;;
16119;SDS011;12670;53.502;10.252;2022-08-19T15:14:47;11.05;;;7.78;;
16119;SDS011;12670;53.502;10.252;2022-08-19T15:17:56;11.23;;;8.20;;
16119;SDS011;12670;53.502;10.252;2022-08-19T15:21:04;13.93;;;7.38;;
16119;SDS011;12670;53.502;10.252;2022-08-19T15:24:08;10.80;;;7.97;;
16119;SDS011;12670;53.502;10.252;2022-08-19T15:27:11;11.90;;;7.30;;
16119;SDS011;12670;53.502;10.252;2022-08-19T15:30:18;10.40;;;7.88;;
16119;SDS011;12670;53.502;10.252;2022-08-19T15:33:22;10.48;;;8.50;;
16119;SDS011;12670;53.502;10.252;2022-08-19T15:36:26;12.27;;;8.02;;
16119;SDS011;12670;53.502;10.252;2022-08-19T15:39:29;12.60;;;8.55;;
16119;SDS011;12670;53.502;10.252;2022-08-19T15:42:32;11.15;;;8.43;;
16119;SDS011;12670;53.502;10.252;2022-08-19T15:45:34;12.63;;;8.00;;
16119;SDS011;12670;53.502;10.252;2022-08-19T15:48:37;11.40;;;8.52;;
16119;SDS011;12670;53.502;10.252;2022-08-19T15:51:42;10.65;;;8.10;;
16119;SDS011;12670;53.502;10.252;2022-08-19T15:54:47;14.25;;;8.77;;
16119;SDS011;12670;53.502;10.252;2022-08-19T15:57:50;9.95;;;7.50;;
16119;SDS011;12670;53.502;10.252;2022-08-19T16:01:28;10.52;;;7.53;;
16119;SDS011;12670;53.502;10.252;2022-08-19T16:04:44;10.95;;;7.97;;
16119;SDS011;12670;53.502;10.252;2022-08-19T16:08:06;11.35;;;8.02;;
16119;SDS011;12670;53.502;10.252;2022-08-19T16:11:10;10.32;;;8.48;;
16119;SDS011;12670;53.502;10.252;2022-08-19T16:14:15;11.80;;;8.07;;
16119;SDS011;12670;53.502;10.252;2022-08-19T16:17:19;13.30;;;8.93;;
16119;SDS011;12670;53.502;10.252;2022-08-19T16:20:22;11.27;;;8.20;;
16119;SDS011;12670;53.502;10.252;2022-08-19T16:23:28;13.50;;;10.15;;
16119;SDS011;12670;53.502;10.252;2022-08-19T16:26:31;10.60;;;9.23;;
16119;SDS011;12670;53.502;10.252;2022-08-19T16:29:34;10.25;;;8.40;;
16119;SDS011;12670;53.502;10.252;2022-08-19T16:32:41;12.18;;;8.93;;
16119;SDS011;12670;53.502;10.252;2022-08-19T16:35:45;11.25;;;8.50;;
16119;SDS011;12670;53.502;10.252;2022-08-19T16:38:59;14.95;;;8.70;;
16119;SDS011;12670;53.502;10.252;2022-08-19T16:42:03;13.60;;;9.43;;
16119;SDS011;12670;53.502;10.252;2022-08-19T16:45:08;12.18;;;8.45;;
16119;SDS011;12670;53.502;10.252;2022-08-19T16:48:11;10.43;;;7.60;;
16119;SDS011;12670;53.502;10.252;2022-08-19T16:51:13;13.27;;;8.55;;
16119;SDS011;12670;53.502;10.252;2022-08-19T16:54:18;12.18;;;8.80;;
16119;SDS011;12670;53.502;10.252;2022-08-19T16:57:21;10.05;;;7.78;;
16119;SDS011;12670;53.502;10.252;2022-08-19T17:00:25;9.85;;;8.07;;
16119;SDS011;12670;53.502;10.252;2022-08-19T17:03:27;11.95;;;7.53;;
16119;SDS011;12670;53.502;10.252;2022-08-19T17:06:37;10.95;;;7.60;;
16119;SDS011;12670;53.502;10.252;2022-08-19T17:09:41;9.63;;;7.32;;
16119;SDS011;12670;53.502;10.252;2022-08-19T17:12:43;9.90;;;7.93;;
16119;SDS011;12670;53.502;10.252;2022-08-19T17:15:46;9.88;;;7.40;;
16119;SDS011;12670;53.502;10.252;2022-08-19T17:18:49;9.65;;;7.47;;
16119;SDS011;12670;53.502;10.252;2022-08-19T17:21:52;9.55;;;6.72;;
16119;SDS011;12670;53.502;10.252;2022-08-19T17:24:57;8.43;;;6.95;;
16119;SDS011;12670;53.502;10.252;2022-08-19T17:28:04;9.77;;;7.65;;
16119;SDS011;12670;53.502;10.252;2022-08-19T17:31:08;10.40;;;7.05;;
16119;SDS011;12670;53.502;10.252;2022-08-19T17:34:10;9.07;;;6.97;;
16119;SDS011;12670;53.502;10.252;2022-08-19T17:37:13;10.80;;;7.40;;
16119;SDS011;12670;53.502;10.252;2022-08-19T17:40:17;8.02;;;6.78;;
16119;SDS011;12670;53.502;10.252;2022-08-19T17:43:24;11.13;;;7.95;;
16119;SDS011;12670;53.502;10.252;2022-08-19T17:46:34;11.50;;;7.07;;
16119;SDS011;12670;53.502;10.252;2022-08-19T17:49:37;8.02;;;7.05;;
16119;SDS011;12670;53.502;10.252;2022-08-19T17:52:39;9.30;;;6.68;;
16119;SDS011;12670;53.502;10.252;2022-08-19T17:55:44;12.57;;;7.28;;